sensor_id;sensor_type;location;lat;lon;timestamp;P1;durP1;ratioP1;P2;durP2;ratioP2
81367;SDS011;70823;50.056;14.398;2023-07-16T00:02:07;5.00;;;3.23;;
81367;SDS011;70823;50.056;14.398;2023-07-16T00:04:32;5.07;;;3.33;;
81367;SDS011;70823;50.056;14.398;2023-07-16T00:07:01;5.47;;;3.47;;
81367;SDS011;70823;50.056;14.398;2023-07-16T00:09:26;4.00;;;3.13;;
81367;SDS011;70823;50.056;14.398;2023-07-16T00:11:52;5.63;;;2.93;;
81367;SDS011;70823;50.056;14.398;2023-07-16T00:14:17;4.37;;;3.43;;
81367;SDS011;70823;50.056;14.398;2023-07-16T00:16:42;6.90;;;3.50;;
81367;SDS011;70823;50.056;14.398;2023-07-16T00:19:09;6.63;;;3.50;;
81367;SDS011;70823;50.056;14.398;2023-07-16T00:21:35;6.57;;;3.85;;
81367;SDS011;70823;50.056;14.398;2023-07-16T00:24:02;5.45;;;3.30;;
81367;SDS011;70823;50.056;14.398;2023-07-16T00:26:28;5.80;;;3.72;;
81367;SDS011;70823;50.056;14.398;2023-07-16T00:28:53;5.60;;;3.73;;
81367;SDS011;70823;50.056;14.398;2023-07-16T00:31:18;8.57;;;3.40;;
81367;SDS011;70823;50.056;14.398;2023-07-16T00:33:43;5.00;;;3.10;;
81367;SDS011;70823;50.056;14.398;2023-07-16T00:36:09;6.43;;;3.67;;
81367;SDS011;70823;50.056;14.398;2023-07-16T00:38:34;4.50;;;3.30;;
81367;SDS011;70823;50.056;14.398;2023-07-16T00:40:59;4.77;;;3.00;;
81367;SDS011;70823;50.056;14.398;2023-07-16T00:43:25;4.47;;;3.37;;
81367;SDS011;70823;50.056;14.398;2023-07-16T00:45:50;4.90;;;3.33;;
81367;SDS011;70823;50.056;14.398;2023-07-16T00:48:15;4.83;;;3.03;;
81367;SDS011;70823;50.056;14.398;2023-07-16T00:50:41;4.72;;;3.38;;
81367;SDS011;70823;50.056;14.398;2023-07-16T00:53:07;6.65;;;3.42;;
81367;SDS011;70823;50.056;14.398;2023-07-16T00:55:33;7.65;;;3.53;;
81367;SDS011;70823;50.056;14.398;2023-07-16T00:58:05;6.13;;;3.10;;
81367;SDS011;70823;50.056;14.398;2023-07-16T01:00:35;5.50;;;3.35;;
81367;SDS011;70823;50.056;14.398;2023-07-16T01:03:01;6.35;;;3.75;;
81367;SDS011;70823;50.056;14.398;2023-07-16T01:05:29;6.38;;;3.28;;
81367;SDS011;70823;50.056;14.398;2023-07-16T01:07:59;12.50;;;4.15;;
81367;SDS011;70823;50.056;14.398;2023-07-16T01:10:27;5.18;;;3.58;;
81367;SDS011;70823;50.056;14.398;2023-07-16T01:12:54;5.55;;;3.17;;
81367;SDS011;70823;50.056;14.398;2023-07-16T01:15:20;9.52;;;3.35;;
81367;SDS011;70823;50.056;14.398;2023-07-16T01:17:45;5.28;;;3.40;;
81367;SDS011;70823;50.056;14.398;2023-07-16T01:20:11;6.17;;;3.43;;
81367;SDS011;70823;50.056;14.398;2023-07-16T01:22:48;6.72;;;3.97;;
81367;SDS011;70823;50.056;14.398;2023-07-16T01:30:47;6.97;;;3.90;;
81367;SDS011;70823;50.056;14.398;2023-07-16T01:33:15;5.72;;;3.78;;
81367;SDS011;70823;50.056;14.398;2023-07-16T01:35:41;6.68;;;3.33;;
81367;SDS011;70823;50.056;14.398;2023-07-16T01:38:08;6.65;;;3.40;;
81367;SDS011;70823;50.056;14.398;2023-07-16T01:40:34;5.65;;;3.60;;
81367;SDS011;70823;50.056;14.398;2023-07-16T01:43:00;8.07;;;3.93;;
81367;SDS011;70823;50.056;14.398;2023-07-16T01:45:25;4.53;;;3.47;;
81367;SDS011;70823;50.056;14.398;2023-07-16T01:50:30;4.45;;;3.35;;
81367;SDS011;70823;50.056;14.398;2023-07-16T01:52:55;5.00;;;3.50;;
81367;SDS011;70823;50.056;14.398;2023-07-16T01:55:21;5.53;;;3.40;;
81367;SDS011;70823;50.056;14.398;2023-07-16T01:57:46;6.65;;;3.58;;
81367;SDS011;70823;50.056;14.398;2023-07-16T02:00:11;3.70;;;3.30;;
81367;SDS011;70823;50.056;14.398;2023-07-16T02:02:37;4.65;;;3.03;;
81367;SDS011;70823;50.056;14.398;2023-07-16T02:05:03;4.40;;;3.40;;
81367;SDS011;70823;50.056;14.398;2023-07-16T02:07:29;4.63;;;3.22;;
81367;SDS011;70823;50.056;14.398;2023-07-16T02:09:54;5.40;;;3.42;;
81367;SDS011;70823;50.056;14.398;2023-07-16T02:12:19;4.67;;;3.30;;
81367;SDS011;70823;50.056;14.398;2023-07-16T02:14:45;5.03;;;3.63;;
81367;SDS011;70823;50.056;14.398;2023-07-16T02:17:10;4.87;;;2.93;;
81367;SDS011;70823;50.056;14.398;2023-07-16T02:19:35;4.70;;;3.10;;
81367;SDS011;70823;50.056;14.398;2023-07-16T02:22:00;6.27;;;3.77;;
81367;SDS011;70823;50.056;14.398;2023-07-16T02:24:26;5.43;;;3.80;;
81367;SDS011;70823;50.056;14.398;2023-07-16T02:26:51;3.90;;;3.50;;
81367;SDS011;70823;50.056;14.398;2023-07-16T02:29:16;5.53;;;4.00;;
81367;SDS011;70823;50.056;14.398;2023-07-16T02:31:42;5.73;;;3.07;;
81367;SDS011;70823;50.056;14.398;2023-07-16T02:34:10;5.03;;;3.30;;
81367;SDS011;70823;50.056;14.398;2023-07-16T02:36:36;4.37;;;3.70;;
81367;SDS011;70823;50.056;14.398;2023-07-16T02:39:01;4.80;;;2.90;;
81367;SDS011;70823;50.056;14.398;2023-07-16T02:41:26;4.13;;;3.33;;
81367;SDS011;70823;50.056;14.398;2023-07-16T02:43:59;5.77;;;3.47;;
81367;SDS011;70823;50.056;14.398;2023-07-16T02:46:25;4.28;;;2.67;;
81367;SDS011;70823;50.056;14.398;2023-07-16T02:48:50;4.80;;;3.43;;
81367;SDS011;70823;50.056;14.398;2023-07-16T02:51:16;4.37;;;3.20;;
81367;SDS011;70823;50.056;14.398;2023-07-16T02:53:41;4.03;;;2.83;;
81367;SDS011;70823;50.056;14.398;2023-07-16T02:56:06;6.43;;;3.17;;
81367;SDS011;70823;50.056;14.398;2023-07-16T02:58:31;3.77;;;3.37;;
81367;SDS011;70823;50.056;14.398;2023-07-16T03:00:57;3.87;;;3.47;;
81367;SDS011;70823;50.056;14.398;2023-07-16T03:03:22;4.13;;;3.00;;
81367;SDS011;70823;50.056;14.398;2023-07-16T03:05:47;7.27;;;3.53;;
81367;SDS011;70823;50.056;14.398;2023-07-16T03:08:13;4.97;;;3.63;;
81367;SDS011;70823;50.056;14.398;2023-07-16T03:10:38;4.60;;;3.30;;
81367;SDS011;70823;50.056;14.398;2023-07-16T03:13:03;4.70;;;2.90;;
81367;SDS011;70823;50.056;14.398;2023-07-16T03:15:28;3.93;;;2.70;;
81367;SDS011;70823;50.056;14.398;2023-07-16T03:17:54;4.47;;;3.17;;
81367;SDS011;70823;50.056;14.398;2023-07-16T03:20:19;7.17;;;3.40;;
81367;SDS011;70823;50.056;14.398;2023-07-16T03:22:44;3.90;;;3.20;;
81367;SDS011;70823;50.056;14.398;2023-07-16T03:25:10;5.23;;;3.63;;
81367;SDS011;70823;50.056;14.398;2023-07-16T03:27:35;4.65;;;3.10;;
81367;SDS011;70823;50.056;14.398;2023-07-16T03:30:01;4.97;;;3.20;;
81367;SDS011;70823;50.056;14.398;2023-07-16T03:32:26;5.28;;;3.22;;
81367;SDS011;70823;50.056;14.398;2023-07-16T03:34:52;4.87;;;3.60;;
81367;SDS011;70823;50.056;14.398;2023-07-16T03:37:17;4.47;;;3.33;;
81367;SDS011;70823;50.056;14.398;2023-07-16T03:39:42;3.43;;;3.13;;
81367;SDS011;70823;50.056;14.398;2023-07-16T03:42:07;4.10;;;3.22;;
81367;SDS011;70823;50.056;14.398;2023-07-16T03:44:33;5.07;;;3.70;;
81367;SDS011;70823;50.056;14.398;2023-07-16T03:46:58;3.78;;;3.40;;
81367;SDS011;70823;50.056;14.398;2023-07-16T03:49:24;3.47;;;2.73;;
81367;SDS011;70823;50.056;14.398;2023-07-16T03:51:49;4.70;;;3.20;;
81367;SDS011;70823;50.056;14.398;2023-07-16T03:54:14;4.63;;;3.20;;
81367;SDS011;70823;50.056;14.398;2023-07-16T03:56:40;5.27;;;3.17;;
81367;SDS011;70823;50.056;14.398;2023-07-16T03:59:05;4.13;;;3.55;;
81367;SDS011;70823;50.056;14.398;2023-07-16T04:01:30;3.40;;;2.80;;
81367;SDS011;70823;50.056;14.398;2023-07-16T04:03:55;4.80;;;3.20;;
81367;SDS011;70823;50.056;14.398;2023-07-16T04:06:21;3.88;;;3.13;;
81367;SDS011;70823;50.056;14.398;2023-07-16T04:08:46;4.53;;;3.33;;
81367;SDS011;70823;50.056;14.398;2023-07-16T04:11:11;3.93;;;3.33;;
81367;SDS011;70823;50.056;14.398;2023-07-16T04:13:37;5.97;;;3.13;;
81367;SDS011;70823;50.056;14.398;2023-07-16T04:16:02;4.77;;;2.70;;
81367;SDS011;70823;50.056;14.398;2023-07-16T04:18:27;3.60;;;3.08;;
81367;SDS011;70823;50.056;14.398;2023-07-16T04:20:53;3.63;;;3.10;;
81367;SDS011;70823;50.056;14.398;2023-07-16T04:23:18;4.30;;;2.92;;
81367;SDS011;70823;50.056;14.398;2023-07-16T04:25:44;4.35;;;2.80;;
81367;SDS011;70823;50.056;14.398;2023-07-16T04:28:10;4.95;;;2.90;;
81367;SDS011;70823;50.056;14.398;2023-07-16T04:30:36;4.18;;;2.80;;
81367;SDS011;70823;50.056;14.398;2023-07-16T04:33:02;4.72;;;3.22;;
81367;SDS011;70823;50.056;14.398;2023-07-16T04:35:28;4.00;;;2.83;;
81367;SDS011;70823;50.056;14.398;2023-07-16T04:37:53;4.07;;;3.00;;
81367;SDS011;70823;50.056;14.398;2023-07-16T04:40:18;5.27;;;2.70;;
81367;SDS011;70823;50.056;14.398;2023-07-16T04:42:44;3.67;;;3.03;;
81367;SDS011;70823;50.056;14.398;2023-07-16T04:45:09;3.03;;;2.30;;
81367;SDS011;70823;50.056;14.398;2023-07-16T04:47:34;3.30;;;2.57;;
81367;SDS011;70823;50.056;14.398;2023-07-16T04:49:59;4.40;;;2.57;;
81367;SDS011;70823;50.056;14.398;2023-07-16T04:52:25;4.82;;;2.72;;
81367;SDS011;70823;50.056;14.398;2023-07-16T04:54:50;2.90;;;1.90;;
81367;SDS011;70823;50.056;14.398;2023-07-16T04:57:16;3.20;;;2.15;;
81367;SDS011;70823;50.056;14.398;2023-07-16T04:59:41;4.93;;;2.27;;
81367;SDS011;70823;50.056;14.398;2023-07-16T05:02:06;2.90;;;2.00;;
81367;SDS011;70823;50.056;14.398;2023-07-16T05:04:35;2.90;;;1.88;;
81367;SDS011;70823;50.056;14.398;2023-07-16T05:07:03;3.28;;;1.98;;
81367;SDS011;70823;50.056;14.398;2023-07-16T05:09:29;5.65;;;2.40;;
81367;SDS011;70823;50.056;14.398;2023-07-16T05:11:54;3.50;;;2.22;;
81367;SDS011;70823;50.056;14.398;2023-07-16T05:14:19;3.30;;;1.80;;
81367;SDS011;70823;50.056;14.398;2023-07-16T05:16:45;4.23;;;2.23;;
81367;SDS011;70823;50.056;14.398;2023-07-16T05:19:10;5.05;;;2.35;;
81367;SDS011;70823;50.056;14.398;2023-07-16T05:21:35;3.40;;;2.17;;
81367;SDS011;70823;50.056;14.398;2023-07-16T05:24:00;3.30;;;2.00;;
81367;SDS011;70823;50.056;14.398;2023-07-16T05:26:26;3.23;;;2.17;;
81367;SDS011;70823;50.056;14.398;2023-07-16T05:28:51;2.87;;;2.10;;
81367;SDS011;70823;50.056;14.398;2023-07-16T05:31:16;3.43;;;1.90;;
81367;SDS011;70823;50.056;14.398;2023-07-16T05:33:42;4.83;;;1.90;;
81367;SDS011;70823;50.056;14.398;2023-07-16T05:36:07;3.47;;;2.10;;
81367;SDS011;70823;50.056;14.398;2023-07-16T05:38:32;2.50;;;2.00;;
81367;SDS011;70823;50.056;14.398;2023-07-16T05:41:01;3.47;;;2.17;;
81367;SDS011;70823;50.056;14.398;2023-07-16T05:43:27;4.55;;;2.53;;
81367;SDS011;70823;50.056;14.398;2023-07-16T05:45:53;3.57;;;2.00;;
81367;SDS011;70823;50.056;14.398;2023-07-16T05:48:18;5.37;;;2.40;;
81367;SDS011;70823;50.056;14.398;2023-07-16T05:50:44;3.20;;;2.37;;
81367;SDS011;70823;50.056;14.398;2023-07-16T05:53:10;2.90;;;2.20;;
81367;SDS011;70823;50.056;14.398;2023-07-16T05:55:35;3.25;;;1.92;;
81367;SDS011;70823;50.056;14.398;2023-07-16T05:58:00;3.37;;;1.90;;
81367;SDS011;70823;50.056;14.398;2023-07-16T06:00:26;3.50;;;2.33;;
81367;SDS011;70823;50.056;14.398;2023-07-16T06:02:51;4.47;;;2.53;;
81367;SDS011;70823;50.056;14.398;2023-07-16T06:05:16;4.40;;;2.23;;
81367;SDS011;70823;50.056;14.398;2023-07-16T06:07:42;4.15;;;2.70;;
81367;SDS011;70823;50.056;14.398;2023-07-16T06:10:08;3.73;;;2.60;;
81367;SDS011;70823;50.056;14.398;2023-07-16T06:12:33;3.75;;;2.47;;
81367;SDS011;70823;50.056;14.398;2023-07-16T06:14:58;4.23;;;2.53;;
81367;SDS011;70823;50.056;14.398;2023-07-16T06:17:24;3.67;;;2.77;;
81367;SDS011;70823;50.056;14.398;2023-07-16T06:19:49;4.27;;;2.50;;
81367;SDS011;70823;50.056;14.398;2023-07-16T06:22:15;3.45;;;2.35;;
81367;SDS011;70823;50.056;14.398;2023-07-16T06:24:41;3.75;;;2.40;;
81367;SDS011;70823;50.056;14.398;2023-07-16T06:27:06;3.60;;;2.10;;
81367;SDS011;70823;50.056;14.398;2023-07-16T06:29:31;4.27;;;2.93;;
81367;SDS011;70823;50.056;14.398;2023-07-16T06:31:57;4.30;;;2.60;;
81367;SDS011;70823;50.056;14.398;2023-07-16T06:34:23;5.20;;;2.88;;
81367;SDS011;70823;50.056;14.398;2023-07-16T06:36:51;3.25;;;2.58;;
81367;SDS011;70823;50.056;14.398;2023-07-16T06:39:17;6.07;;;3.10;;
81367;SDS011;70823;50.056;14.398;2023-07-16T06:41:42;4.67;;;2.07;;
81367;SDS011;70823;50.056;14.398;2023-07-16T06:44:07;4.97;;;2.80;;
81367;SDS011;70823;50.056;14.398;2023-07-16T06:46:33;6.27;;;3.17;;
81367;SDS011;70823;50.056;14.398;2023-07-16T06:48:58;4.27;;;2.30;;
81367;SDS011;70823;50.056;14.398;2023-07-16T06:51:23;3.65;;;2.53;;
81367;SDS011;70823;50.056;14.398;2023-07-16T06:53:49;4.78;;;2.35;;
81367;SDS011;70823;50.056;14.398;2023-07-16T06:56:14;3.28;;;2.40;;
81367;SDS011;70823;50.056;14.398;2023-07-16T06:58:40;4.20;;;2.42;;
81367;SDS011;70823;50.056;14.398;2023-07-16T07:01:05;3.93;;;2.53;;
81367;SDS011;70823;50.056;14.398;2023-07-16T07:03:31;3.58;;;2.42;;
81367;SDS011;70823;50.056;14.398;2023-07-16T07:05:58;5.53;;;2.45;;
81367;SDS011;70823;50.056;14.398;2023-07-16T07:08:26;4.28;;;2.60;;
81367;SDS011;70823;50.056;14.398;2023-07-16T07:10:51;4.90;;;2.80;;
81367;SDS011;70823;50.056;14.398;2023-07-16T07:13:17;3.13;;;2.20;;
81367;SDS011;70823;50.056;14.398;2023-07-16T07:15:42;3.17;;;2.27;;
81367;SDS011;70823;50.056;14.398;2023-07-16T07:18:07;3.90;;;2.60;;
81367;SDS011;70823;50.056;14.398;2023-07-16T07:20:33;4.53;;;2.60;;
81367;SDS011;70823;50.056;14.398;2023-07-16T07:22:58;5.75;;;2.35;;
81367;SDS011;70823;50.056;14.398;2023-07-16T07:25:27;4.45;;;2.50;;
81367;SDS011;70823;50.056;14.398;2023-07-16T07:27:52;3.42;;;2.80;;
81367;SDS011;70823;50.056;14.398;2023-07-16T07:30:18;4.35;;;3.08;;
81367;SDS011;70823;50.056;14.398;2023-07-16T07:32:43;5.33;;;3.60;;
81367;SDS011;70823;50.056;14.398;2023-07-16T07:35:08;3.60;;;3.10;;
81367;SDS011;70823;50.056;14.398;2023-07-16T07:37:34;3.55;;;2.85;;
81367;SDS011;70823;50.056;14.398;2023-07-16T07:39:59;3.13;;;2.63;;
81367;SDS011;70823;50.056;14.398;2023-07-16T07:42:25;3.30;;;2.60;;
81367;SDS011;70823;50.056;14.398;2023-07-16T07:44:51;3.10;;;2.50;;
81367;SDS011;70823;50.056;14.398;2023-07-16T07:47:17;3.93;;;2.63;;
81367;SDS011;70823;50.056;14.398;2023-07-16T07:49:42;3.93;;;2.43;;
81367;SDS011;70823;50.056;14.398;2023-07-16T07:52:07;2.63;;;2.20;;
81367;SDS011;70823;50.056;14.398;2023-07-16T07:54:33;4.72;;;2.90;;
81367;SDS011;70823;50.056;14.398;2023-07-16T07:57:00;4.17;;;3.10;;
81367;SDS011;70823;50.056;14.398;2023-07-16T07:59:26;14.02;;;8.98;;
81367;SDS011;70823;50.056;14.398;2023-07-16T08:01:51;5.18;;;4.10;;
81367;SDS011;70823;50.056;14.398;2023-07-16T08:04:17;4.97;;;2.87;;
81367;SDS011;70823;50.056;14.398;2023-07-16T08:06:42;3.30;;;2.27;;
81367;SDS011;70823;50.056;14.398;2023-07-16T08:09:08;3.85;;;2.55;;
81367;SDS011;70823;50.056;14.398;2023-07-16T08:11:33;2.75;;;2.25;;
81367;SDS011;70823;50.056;14.398;2023-07-16T08:14:00;2.63;;;2.30;;
81367;SDS011;70823;50.056;14.398;2023-07-16T08:16:25;3.20;;;2.40;;
81367;SDS011;70823;50.056;14.398;2023-07-16T08:18:50;3.30;;;2.50;;
81367;SDS011;70823;50.056;14.398;2023-07-16T08:21:16;3.73;;;2.90;;
81367;SDS011;70823;50.056;14.398;2023-07-16T08:23:44;3.63;;;2.53;;
81367;SDS011;70823;50.056;14.398;2023-07-16T08:26:16;3.05;;;2.05;;
81367;SDS011;70823;50.056;14.398;2023-07-16T08:28:42;3.20;;;2.42;;
81367;SDS011;70823;50.056;14.398;2023-07-16T08:31:07;3.63;;;2.40;;
81367;SDS011;70823;50.056;14.398;2023-07-16T08:33:32;3.10;;;2.13;;
81367;SDS011;70823;50.056;14.398;2023-07-16T08:35:58;3.23;;;2.20;;
81367;SDS011;70823;50.056;14.398;2023-07-16T08:38:23;2.83;;;2.53;;
81367;SDS011;70823;50.056;14.398;2023-07-16T08:40:48;3.47;;;2.80;;
81367;SDS011;70823;50.056;14.398;2023-07-16T08:43:14;3.20;;;2.80;;
81367;SDS011;70823;50.056;14.398;2023-07-16T08:45:41;3.10;;;2.33;;
81367;SDS011;70823;50.056;14.398;2023-07-16T08:48:09;4.03;;;2.42;;
81367;SDS011;70823;50.056;14.398;2023-07-16T08:50:35;3.08;;;2.42;;
81367;SDS011;70823;50.056;14.398;2023-07-16T08:53:04;3.38;;;2.72;;
81367;SDS011;70823;50.056;14.398;2023-07-16T08:55:30;3.10;;;2.65;;
81367;SDS011;70823;50.056;14.398;2023-07-16T08:57:55;3.13;;;2.83;;
81367;SDS011;70823;50.056;14.398;2023-07-16T09:00:22;3.58;;;2.60;;
81367;SDS011;70823;50.056;14.398;2023-07-16T09:02:51;3.47;;;2.83;;
81367;SDS011;70823;50.056;14.398;2023-07-16T09:05:18;3.72;;;2.90;;
81367;SDS011;70823;50.056;14.398;2023-07-16T09:07:45;3.75;;;2.83;;
81367;SDS011;70823;50.056;14.398;2023-07-16T09:10:13;5.03;;;2.97;;
81367;SDS011;70823;50.056;14.398;2023-07-16T09:12:42;3.05;;;2.50;;
81367;SDS011;70823;50.056;14.398;2023-07-16T09:15:08;3.88;;;2.58;;
81367;SDS011;70823;50.056;14.398;2023-07-16T09:17:34;5.10;;;2.60;;
81367;SDS011;70823;50.056;14.398;2023-07-16T09:20:03;2.85;;;2.35;;
81367;SDS011;70823;50.056;14.398;2023-07-16T09:22:29;3.15;;;2.40;;
81367;SDS011;70823;50.056;14.398;2023-07-16T09:24:54;2.85;;;1.95;;
81367;SDS011;70823;50.056;14.398;2023-07-16T09:27:21;3.83;;;2.13;;
81367;SDS011;70823;50.056;14.398;2023-07-16T09:29:53;3.03;;;1.98;;
81367;SDS011;70823;50.056;14.398;2023-07-16T09:32:18;3.57;;;2.07;;
81367;SDS011;70823;50.056;14.398;2023-07-16T09:34:44;2.40;;;1.88;;
81367;SDS011;70823;50.056;14.398;2023-07-16T09:37:09;2.60;;;2.00;;
81367;SDS011;70823;50.056;14.398;2023-07-16T09:39:35;3.00;;;2.40;;
81367;SDS011;70823;50.056;14.398;2023-07-16T09:42:01;2.83;;;2.22;;
81367;SDS011;70823;50.056;14.398;2023-07-16T09:44:27;2.67;;;2.08;;
81367;SDS011;70823;50.056;14.398;2023-07-16T09:46:52;2.70;;;1.92;;
81367;SDS011;70823;50.056;14.398;2023-07-16T09:49:18;2.95;;;2.03;;
81367;SDS011;70823;50.056;14.398;2023-07-16T09:51:43;2.58;;;2.00;;
81367;SDS011;70823;50.056;14.398;2023-07-16T09:54:12;2.72;;;2.05;;
81367;SDS011;70823;50.056;14.398;2023-07-16T09:56:39;3.08;;;2.22;;
81367;SDS011;70823;50.056;14.398;2023-07-16T09:59:08;2.70;;;2.03;;
81367;SDS011;70823;50.056;14.398;2023-07-16T10:01:36;3.03;;;2.13;;
81367;SDS011;70823;50.056;14.398;2023-07-16T10:04:17;2.80;;;2.00;;
81367;SDS011;70823;50.056;14.398;2023-07-16T10:06:57;2.63;;;1.85;;
81367;SDS011;70823;50.056;14.398;2023-07-16T10:09:37;2.53;;;1.85;;
81367;SDS011;70823;50.056;14.398;2023-07-16T10:12:11;3.45;;;2.10;;
81367;SDS011;70823;50.056;14.398;2023-07-16T10:14:44;3.05;;;1.98;;
81367;SDS011;70823;50.056;14.398;2023-07-16T10:17:18;3.60;;;2.10;;
81367;SDS011;70823;50.056;14.398;2023-07-16T10:19:47;3.20;;;2.22;;
81367;SDS011;70823;50.056;14.398;2023-07-16T10:22:33;3.42;;;1.92;;
81367;SDS011;70823;50.056;14.398;2023-07-16T10:24:59;5.38;;;2.25;;
81367;SDS011;70823;50.056;14.398;2023-07-16T10:27:32;3.47;;;2.08;;
81367;SDS011;70823;50.056;14.398;2023-07-16T10:29:59;3.17;;;2.03;;
81367;SDS011;70823;50.056;14.398;2023-07-16T10:32:26;3.10;;;1.90;;
81367;SDS011;70823;50.056;14.398;2023-07-16T10:34:53;2.45;;;1.83;;
81367;SDS011;70823;50.056;14.398;2023-07-16T10:37:18;3.63;;;2.20;;
81367;SDS011;70823;50.056;14.398;2023-07-16T10:39:46;3.23;;;2.20;;
81367;SDS011;70823;50.056;14.398;2023-07-16T10:42:16;2.35;;;1.85;;
81367;SDS011;70823;50.056;14.398;2023-07-16T10:44:42;2.70;;;2.08;;
81367;SDS011;70823;50.056;14.398;2023-07-16T10:47:08;2.92;;;2.33;;
81367;SDS011;70823;50.056;14.398;2023-07-16T10:49:34;3.58;;;1.90;;
81367;SDS011;70823;50.056;14.398;2023-07-16T10:52:00;4.57;;;2.77;;
81367;SDS011;70823;50.056;14.398;2023-07-16T10:54:25;2.88;;;2.08;;
81367;SDS011;70823;50.056;14.398;2023-07-16T10:56:51;3.03;;;1.98;;
81367;SDS011;70823;50.056;14.398;2023-07-16T10:59:16;3.65;;;1.98;;
81367;SDS011;70823;50.056;14.398;2023-07-16T11:01:42;6.22;;;2.33;;
81367;SDS011;70823;50.056;14.398;2023-07-16T11:04:08;3.17;;;1.92;;
81367;SDS011;70823;50.056;14.398;2023-07-16T11:06:33;3.47;;;2.30;;
81367;SDS011;70823;50.056;14.398;2023-07-16T11:09:09;4.05;;;1.92;;
81367;SDS011;70823;50.056;14.398;2023-07-16T11:11:34;2.70;;;2.10;;
81367;SDS011;70823;50.056;14.398;2023-07-16T11:14:00;2.92;;;1.92;;
81367;SDS011;70823;50.056;14.398;2023-07-16T11:16:32;2.60;;;1.75;;
81367;SDS011;70823;50.056;14.398;2023-07-16T11:18:58;3.17;;;1.90;;
81367;SDS011;70823;50.056;14.398;2023-07-16T11:21:23;3.00;;;2.00;;
81367;SDS011;70823;50.056;14.398;2023-07-16T11:23:49;3.23;;;2.20;;
81367;SDS011;70823;50.056;14.398;2023-07-16T11:26:14;3.13;;;1.92;;
81367;SDS011;70823;50.056;14.398;2023-07-16T11:28:40;3.28;;;1.95;;
81367;SDS011;70823;50.056;14.398;2023-07-16T11:31:16;3.80;;;2.08;;
81367;SDS011;70823;50.056;14.398;2023-07-16T11:33:45;2.33;;;1.80;;
81367;SDS011;70823;50.056;14.398;2023-07-16T11:36:11;3.58;;;1.80;;
81367;SDS011;70823;50.056;14.398;2023-07-16T11:38:37;3.08;;;1.70;;
81367;SDS011;70823;50.056;14.398;2023-07-16T11:41:02;3.78;;;1.98;;
81367;SDS011;70823;50.056;14.398;2023-07-16T11:43:28;3.70;;;2.20;;
81367;SDS011;70823;50.056;14.398;2023-07-16T11:45:53;4.40;;;2.07;;
81367;SDS011;70823;50.056;14.398;2023-07-16T11:48:18;3.73;;;2.23;;
81367;SDS011;70823;50.056;14.398;2023-07-16T11:50:44;4.20;;;2.30;;
81367;SDS011;70823;50.056;14.398;2023-07-16T11:53:10;4.07;;;1.98;;
81367;SDS011;70823;50.056;14.398;2023-07-16T11:55:35;4.43;;;2.10;;
81367;SDS011;70823;50.056;14.398;2023-07-16T11:58:01;3.27;;;2.07;;
81367;SDS011;70823;50.056;14.398;2023-07-16T12:00:28;2.63;;;2.10;;
81367;SDS011;70823;50.056;14.398;2023-07-16T12:02:53;3.80;;;2.15;;
81367;SDS011;70823;50.056;14.398;2023-07-16T12:05:19;2.67;;;1.80;;
81367;SDS011;70823;50.056;14.398;2023-07-16T12:07:45;3.78;;;2.10;;
81367;SDS011;70823;50.056;14.398;2023-07-16T12:10:11;2.50;;;1.80;;
81367;SDS011;70823;50.056;14.398;2023-07-16T12:12:36;2.40;;;2.00;;
81367;SDS011;70823;50.056;14.398;2023-07-16T12:15:05;3.80;;;2.25;;
81367;SDS011;70823;50.056;14.398;2023-07-16T12:17:31;5.10;;;2.22;;
81367;SDS011;70823;50.056;14.398;2023-07-16T12:19:56;4.13;;;2.37;;
81367;SDS011;70823;50.056;14.398;2023-07-16T12:22:22;3.03;;;1.80;;
81367;SDS011;70823;50.056;14.398;2023-07-16T12:24:48;2.90;;;1.75;;
81367;SDS011;70823;50.056;14.398;2023-07-16T12:27:14;3.40;;;2.13;;
81367;SDS011;70823;50.056;14.398;2023-07-16T12:29:40;2.30;;;1.65;;
81367;SDS011;70823;50.056;14.398;2023-07-16T12:32:06;3.33;;;2.05;;
81367;SDS011;70823;50.056;14.398;2023-07-16T12:34:33;2.75;;;1.75;;
81367;SDS011;70823;50.056;14.398;2023-07-16T12:36:58;3.22;;;1.80;;
81367;SDS011;70823;50.056;14.398;2023-07-16T12:39:24;2.90;;;1.75;;
81367;SDS011;70823;50.056;14.398;2023-07-16T12:41:49;3.85;;;2.00;;
81367;SDS011;70823;50.056;14.398;2023-07-16T12:44:15;3.90;;;2.20;;
81367;SDS011;70823;50.056;14.398;2023-07-16T12:46:40;4.73;;;2.10;;
81367;SDS011;70823;50.056;14.398;2023-07-16T12:49:05;4.30;;;2.20;;
81367;SDS011;70823;50.056;14.398;2023-07-16T12:51:30;4.50;;;2.33;;
81367;SDS011;70823;50.056;14.398;2023-07-16T12:53:56;2.77;;;1.97;;
81367;SDS011;70823;50.056;14.398;2023-07-16T12:56:21;2.92;;;2.05;;
81367;SDS011;70823;50.056;14.398;2023-07-16T12:58:47;3.10;;;2.20;;
81367;SDS011;70823;50.056;14.398;2023-07-16T13:01:13;3.05;;;1.85;;
81367;SDS011;70823;50.056;14.398;2023-07-16T13:03:38;2.70;;;1.90;;
81367;SDS011;70823;50.056;14.398;2023-07-16T13:06:03;2.90;;;2.10;;
81367;SDS011;70823;50.056;14.398;2023-07-16T13:08:29;3.67;;;2.20;;
81367;SDS011;70823;50.056;14.398;2023-07-16T13:10:55;4.40;;;2.03;;
81367;SDS011;70823;50.056;14.398;2023-07-16T13:13:20;3.47;;;2.10;;
81367;SDS011;70823;50.056;14.398;2023-07-16T13:15:45;4.20;;;1.90;;
81367;SDS011;70823;50.056;14.398;2023-07-16T13:18:11;4.18;;;2.13;;
81367;SDS011;70823;50.056;14.398;2023-07-16T13:20:36;5.18;;;2.58;;
81367;SDS011;70823;50.056;14.398;2023-07-16T13:23:02;3.63;;;2.42;;
81367;SDS011;70823;50.056;14.398;2023-07-16T13:25:28;4.15;;;2.65;;
81367;SDS011;70823;50.056;14.398;2023-07-16T13:27:54;2.85;;;1.98;;
81367;SDS011;70823;50.056;14.398;2023-07-16T13:30:20;4.10;;;2.45;;
81367;SDS011;70823;50.056;14.398;2023-07-16T13:32:45;5.63;;;2.30;;
81367;SDS011;70823;50.056;14.398;2023-07-16T13:35:11;3.08;;;2.33;;
81367;SDS011;70823;50.056;14.398;2023-07-16T13:37:36;3.07;;;2.47;;
81367;SDS011;70823;50.056;14.398;2023-07-16T13:40:02;4.30;;;2.40;;
81367;SDS011;70823;50.056;14.398;2023-07-16T13:42:28;3.28;;;2.20;;
81367;SDS011;70823;50.056;14.398;2023-07-16T13:44:53;4.17;;;2.50;;
81367;SDS011;70823;50.056;14.398;2023-07-16T13:47:19;4.05;;;2.40;;
81367;SDS011;70823;50.056;14.398;2023-07-16T13:49:46;4.22;;;2.47;;
81367;SDS011;70823;50.056;14.398;2023-07-16T13:52:11;3.03;;;2.20;;
81367;SDS011;70823;50.056;14.398;2023-07-16T13:54:36;3.33;;;2.07;;
81367;SDS011;70823;50.056;14.398;2023-07-16T13:57:01;3.53;;;2.30;;
81367;SDS011;70823;50.056;14.398;2023-07-16T13:59:27;3.75;;;2.30;;
81367;SDS011;70823;50.056;14.398;2023-07-16T14:01:59;3.30;;;2.70;;
81367;SDS011;70823;50.056;14.398;2023-07-16T14:04:28;3.15;;;2.33;;
81367;SDS011;70823;50.056;14.398;2023-07-16T14:06:54;2.92;;;2.33;;
81367;SDS011;70823;50.056;14.398;2023-07-16T14:09:20;3.53;;;2.47;;
81367;SDS011;70823;50.056;14.398;2023-07-16T14:11:45;3.85;;;2.30;;
81367;SDS011;70823;50.056;14.398;2023-07-16T14:14:13;3.45;;;2.20;;
81367;SDS011;70823;50.056;14.398;2023-07-16T14:16:41;4.57;;;2.53;;
81367;SDS011;70823;50.056;14.398;2023-07-16T14:19:06;4.83;;;2.53;;
81367;SDS011;70823;50.056;14.398;2023-07-16T14:21:32;5.10;;;2.90;;
81367;SDS011;70823;50.056;14.398;2023-07-16T14:24:03;3.33;;;2.45;;
81367;SDS011;70823;50.056;14.398;2023-07-16T14:26:29;4.32;;;2.78;;
81367;SDS011;70823;50.056;14.398;2023-07-16T14:28:54;3.13;;;2.43;;
81367;SDS011;70823;50.056;14.398;2023-07-16T14:31:20;3.60;;;2.50;;
81367;SDS011;70823;50.056;14.398;2023-07-16T14:33:45;3.50;;;2.20;;
81367;SDS011;70823;50.056;14.398;2023-07-16T14:36:10;3.27;;;2.60;;